Time;durP1;ratioP1;P1;durP2;ratioP2;P2;SDS_P1;SDS_P2;PMS_P1;PMS_P2;Temp;Humidity;BMP_temperature;BMP_pressure;BME280_temperature;BME280_humidity;BME280_pressure;Samples;Min_cycle;Max_cycle;Signal;HPM_P1;HPM_P2
2021/10/21 00:02:16;;;;;;;10.83;9.70;;;;;;;7.81;87.00;96976.09;6135089;29;20827;-74
2021/10/21 00:05:19;;;;;;;10.73;8.07;;;;;;;7.78;86.67;96977.19;6117119;29;20227;-74
2021/10/21 00:08:21;;;;;;;10.30;8.13;;;;;;;7.76;87.08;96964.19;6116874;29;20220;-74
2021/10/21 00:11:23;;;;;;;9.03;7.80;;;;;;;7.72;86.62;96957.50;6117630;29;20381;-73
2021/10/21 00:14:25;;;;;;;10.13;8.70;;;;;;;7.70;86.99;96963.81;6117298;29;20200;-72
2021/10/21 00:17:28;;;;;;;12.07;9.00;;;;;;;7.71;86.63;96968.09;6135268;29;20712;-72
2021/10/21 00:20:30;;;;;;;11.10;9.13;;;;;;;7.67;86.47;96967.53;6116895;29;20240;-73
2021/10/21 00:23:32;;;;;;;12.43;9.80;;;;;;;7.65;87.20;96968.63;6115586;29;20488;-71
2021/10/21 00:26:34;;;;;;;10.67;9.47;;;;;;;7.65;86.71;96964.19;6138808;29;20217;-71
2021/10/21 00:29:36;;;;;;;9.03;7.90;;;;;;;7.64;87.03;96944.13;6138877;29;20653;-72
2021/10/21 00:32:38;;;;;;;10.17;8.87;;;;;;;7.61;86.81;96936.50;6121570;29;20614;-74
2021/10/21 00:35:40;;;;;;;8.50;7.57;;;;;;;7.58;86.71;96926.25;6135789;29;20364;-75
2021/10/21 00:38:42;;;;;;;9.10;8.20;;;;;;;7.58;86.70;96923.63;6118411;29;20681;-73
2021/10/21 00:41:44;;;;;;;8.47;7.67;;;;;;;7.60;87.02;96923.50;6121213;29;20249;-73
2021/10/21 00:44:46;;;;;;;8.97;7.67;;;;;;;7.59;87.16;96920.03;6138878;29;20198;-74
2021/10/21 00:47:48;;;;;;;8.70;7.77;;;;;;;7.59;87.26;96913.94;6121001;29;20651;-73
2021/10/21 00:50:50;;;;;;;9.87;8.23;;;;;;;7.57;87.10;96918.50;6126654;29;20688;-74
2021/10/21 00:53:52;;;;;;;9.13;8.23;;;;;;;7.57;87.21;96915.88;6119106;29;20490;-75
2021/10/21 00:56:56;;;;;;;8.73;7.83;;;;;;;7.59;86.83;96906.91;6121154;29;20210;-71
2021/10/21 00:59:58;;;;;;;8.27;7.07;;;;;;;7.61;86.69;96891.03;6137836;29;20320;-72
2021/10/21 01:03:00;;;;;;;7.77;6.97;;;;;;;7.63;86.50;96891.75;6138486;29;20221;-73
2021/10/21 01:06:02;;;;;;;8.43;7.27;;;;;;;7.64;87.09;96883.75;6138537;29;20218;-73
2021/10/21 01:09:05;;;;;;;9.40;8.20;;;;;;;7.68;86.88;96886.97;6137838;29;20672;-73
2021/10/21 01:12:07;;;;;;;8.17;7.33;;;;;;;7.67;86.63;96874.78;6136697;29;20561;-73
2021/10/21 01:15:27;;;;;;;6.43;5.70;;;;;;;7.66;86.75;96867.88;6137890;29;20564;-74
2021/10/21 01:18:29;;;;;;;7.47;6.67;;;;;;;7.62;87.16;96863.81;6136135;29;20201;-74
2021/10/21 01:21:31;;;;;;;7.53;6.03;;;;;;;7.60;87.27;96863.94;6105531;29;20606;-73
2021/10/21 01:24:34;;;;;;;6.23;5.63;;;;;;;7.60;86.73;96849.97;6113192;29;20199;-75
2021/10/21 01:27:36;;;;;;;7.50;6.37;;;;;;;7.58;86.97;96844.03;6120668;29;20233;-75
2021/10/21 01:30:38;;;;;;;6.67;5.97;;;;;;;7.55;87.01;96836.41;6120267;29;20206;-75
2021/10/21 01:33:40;;;;;;;8.33;6.87;;;;;;;7.54;87.16;96837.34;6120218;29;20202;-73
2021/10/21 01:36:48;;;;;;;8.23;6.50;;;;;;;7.54;86.93;96819.81;6109061;29;20198;-74
2021/10/21 01:39:49;;;;;;;8.57;6.90;;;;;;;7.54;86.88;96816.34;6136112;29;20677;-74
2021/10/21 01:42:51;;;;;;;7.03;6.17;;;;;;;7.54;87.22;96813.72;6119761;29;20209;-74
2021/10/21 01:45:53;;;;;;;9.13;6.37;;;;;;;7.54;86.95;96804.06;6137390;29;20219;-74
2021/10/21 01:48:55;;;;;;;8.00;7.13;;;;;;;7.60;87.30;96797.44;6137009;29;20203;-75
2021/10/21 01:51:57;;;;;;;7.83;7.03;;;;;;;7.62;86.70;96792.91;6112682;29;20635;-74
2021/10/21 01:54:59;;;;;;;8.57;6.77;;;;;;;7.58;86.85;96791.53;6135398;29;20197;-76
2021/10/21 01:58:01;;;;;;;8.67;7.77;;;;;;;7.53;86.62;96784.00;6137295;29;20187;-75
2021/10/21 02:01:03;;;;;;;7.00;5.90;;;;;;;7.49;86.48;96779.13;6119657;29;20240;-73
2021/10/21 02:04:06;;;;;;;9.10;7.77;;;;;;;7.46;86.62;96769.72;6119911;29;20275;-75
2021/10/21 02:07:07;;;;;;;10.30;8.50;;;;;;;7.50;87.17;96763.25;6119634;29;20746;-74
2021/10/21 02:10:16;;;;;;;11.90;8.70;;;;;;;7.48;87.22;96761.75;6136656;29;20240;-74
2021/10/21 02:13:21;;;;;;;13.33;9.77;;;;;;;7.38;86.56;96738.88;6119625;29;20460;-72
2021/10/21 02:16:23;;;;;;;10.83;8.60;;;;;;;7.33;86.94;96734.94;6136571;29;20651;-72
2021/10/21 02:19:25;;;;;;;10.13;8.00;;;;;;;7.30;86.81;96738.66;6102346;29;20263;-75
2021/10/21 02:22:27;;;;;;;13.43;9.80;;;;;;;7.27;87.26;96725.81;6101096;29;20784;-74
2021/10/21 02:25:29;;;;;;;10.77;8.73;;;;;;;7.25;87.49;96724.25;6119381;29;20252;-74
2021/10/21 02:28:33;;;;;;;12.03;8.80;;;;;;;7.25;87.13;96726.88;6118678;29;20296;-75
2021/10/21 02:31:35;;;;;;;12.27;9.33;;;;;;;7.25;87.55;96737.38;6118861;29;20194;-74
2021/10/21 02:34:37;;;;;;;10.63;8.03;;;;;;;7.25;86.83;96734.75;6118989;29;20208;-73
2021/10/21 02:37:39;;;;;;;10.20;8.03;;;;;;;7.24;86.99;96725.22;6134738;29;20195;-75
2021/10/21 02:40:42;;;;;;;10.00;7.43;;;;;;;7.17;87.16;96711.78;6135853;29;20200;-74
2021/10/21 02:43:44;;;;;;;10.87;6.90;;;;;;;7.11;86.95;96716.66;6135297;29;20201;-75
2021/10/21 02:46:46;;;;;;;9.03;7.43;;;;;;;7.08;87.52;96715.16;6135402;28;20640;-75
2021/10/21 02:49:48;;;;;;;9.50;7.63;;;;;;;7.06;87.22;96710.97;6119184;29;20190;-73
2021/10/21 02:52:50;;;;;;;8.80;7.60;;;;;;;6.99;86.93;96705.38;6080920;29;20637;-74
2021/10/21 02:55:53;;;;;;;9.37;7.20;;;;;;;6.92;86.94;96701.59;6135678;29;20433;-73
2021/10/21 02:58:55;;;;;;;9.40;7.60;;;;;;;6.91;86.87;96713.03;6118422;29;20235;-74
2021/10/21 03:01:57;;;;;;;10.27;7.20;;;;;;;6.88;86.86;96698.41;6118653;29;20192;-74
2021/10/21 03:05:00;;;;;;;7.60;6.57;;;;;;;6.82;87.05;96701.50;6135544;29;20205;-73
2021/10/21 03:08:02;;;;;;;7.73;6.43;;;;;;;6.79;86.97;96696.50;6117772;29;20725;-74
2021/10/21 03:11:04;;;;;;;7.30;6.33;;;;;;;6.74;86.61;96688.19;6135553;29;20592;-74
2021/10/21 03:14:06;;;;;;;8.27;6.80;;;;;;;6.74;86.75;96687.34;6135158;29;20187;-75
2021/10/21 03:17:07;;;;;;;7.77;6.90;;;;;;;6.75;86.67;96687.25;6136053;29;20200;-73
2021/10/21 03:20:12;;;;;;;7.17;6.47;;;;;;;6.78;86.76;96680.91;6120249;29;20208;-74
2021/10/21 03:23:14;;;;;;;7.83;6.90;;;;;;;6.80;86.59;96674.56;6088926;29;20212;-73
2021/10/21 03:26:16;;;;;;;8.33;6.40;;;;;;;6.77;86.38;96672.22;6110400;29;20220;-73
2021/10/21 03:29:18;;;;;;;8.13;6.07;;;;;;;6.78;86.56;96668.66;6135356;29;20740;-74
2021/10/21 03:32:19;;;;;;;9.30;7.50;;;;;;;6.78;86.68;96663.41;6135491;29;20198;-75
2021/10/21 03:35:21;;;;;;;8.70;7.47;;;;;;;6.77;86.67;96666.16;6117047;29;20203;-74
2021/10/21 03:38:23;;;;;;;8.73;6.77;;;;;;;6.78;86.80;96660.78;6118435;29;20194;-74
2021/10/21 03:41:28;;;;;;;10.90;7.77;;;;;;;6.81;86.68;96662.28;6117528;29;20215;-73
2021/10/21 03:44:30;;;;;;;7.10;6.40;;;;;;;6.84;86.50;96664.69;6117809;29;20194;-75
2021/10/21 03:47:32;;;;;;;9.60;8.33;;;;;;;6.85;86.98;96661.09;6135200;29;20230;-73
2021/10/21 03:50:34;;;;;;;10.20;7.03;;;;;;;6.87;86.80;96653.94;6130774;29;20245;-71
2021/10/21 03:53:36;;;;;;;9.20;7.60;;;;;;;6.88;86.48;96655.63;6124055;29;20191;-72
2021/10/21 03:56:37;;;;;;;9.17;6.83;;;;;;;6.89;86.17;96650.22;6136285;28;20199;-71
2021/10/21 03:59:40;;;;;;;9.67;7.93;;;;;;;6.89;86.70;96633.66;6139717;29;20215;-71
2021/10/21 04:02:41;;;;;;;9.57;7.17;;;;;;;6.88;86.85;96640.72;6138584;29;20215;-71
2021/10/21 04:05:44;;;;;;;8.93;7.13;;;;;;;6.88;86.84;96632.84;6121894;29;20605;-74
2021/10/21 04:08:46;;;;;;;7.57;5.97;;;;;;;6.88;87.08;96624.97;6139418;29;20313;-74
2021/10/21 04:11:48;;;;;;;10.83;6.90;;;;;;;6.92;86.58;96628.16;6118685;29;20329;-74
2021/10/21 04:14:50;;;;;;;10.07;7.57;;;;;;;6.94;86.90;96623.63;6120704;29;20208;-75
2021/10/21 04:17:53;;;;;;;8.43;7.43;;;;;;;6.94;86.62;96605.28;6139297;29;20196;-73
2021/10/21 04:20:55;;;;;;;7.63;6.53;;;;;;;6.87;86.82;96594.47;6125251;29;20283;-75
2021/10/21 04:23:57;;;;;;;6.40;5.77;;;;;;;6.84;86.99;96592.09;6116249;29;20201;-75
2021/10/21 04:26:59;;;;;;;8.67;7.57;;;;;;;6.81;86.95;96584.47;6138930;29;20217;-75
2021/10/21 04:30:02;;;;;;;8.07;7.10;;;;;;;6.75;86.90;96571.03;6139115;29;20688;-76
2021/10/21 04:33:04;;;;;;;6.43;5.73;;;;;;;6.71;86.95;96565.22;6138847;29;20207;-73
2021/10/21 04:36:06;;;;;;;8.30;7.37;;;;;;;6.67;86.72;96558.56;6132175;29;20336;-74
2021/10/21 04:39:09;;;;;;;7.90;6.67;;;;;;;6.60;86.92;96546.91;6091237;29;20599;-74
2021/10/21 04:42:10;;;;;;;8.10;7.20;;;;;;;6.50;87.10;96551.25;6131529;29;20211;-75
2021/10/21 04:45:12;;;;;;;8.20;7.13;;;;;;;6.43;86.90;96537.81;6121273;29;20218;-75
2021/10/21 04:48:15;;;;;;;8.87;7.63;;;;;;;6.37;86.76;96535.72;6139090;29;20302;-73
2021/10/21 04:51:16;;;;;;;8.40;7.20;;;;;;;6.31;87.36;96533.56;6123257;29;20719;-74
2021/10/21 04:54:18;;;;;;;8.07;7.03;;;;;;;6.29;86.98;96527.63;6104754;29;20675;-73
2021/10/21 04:57:20;;;;;;;8.70;7.73;;;;;;;6.27;86.70;96522.53;6120940;29;20195;-74
2021/10/21 05:00:22;;;;;;;8.43;7.50;;;;;;;6.25;87.27;96510.50;6137930;29;20400;-75
2021/10/21 05:03:24;;;;;;;10.03;7.43;;;;;;;6.24;86.98;96517.53;6137903;29;20204;-74
2021/10/21 05:06:26;;;;;;;8.53;7.63;;;;;;;6.23;87.28;96502.78;6120609;29;20478;-74
2021/10/21 05:09:28;;;;;;;7.13;6.43;;;;;;;6.25;87.24;96498.25;6136925;28;20231;-75
2021/10/21 05:12:31;;;;;;;7.73;6.97;;;;;;;6.24;87.42;96496.56;6120725;29;20206;-73
2021/10/21 05:15:33;;;;;;;8.17;7.13;;;;;;;6.23;87.04;96491.47;6137814;29;20750;-71
2021/10/21 05:18:34;;;;;;;8.77;7.87;;;;;;;6.23;87.62;96499.31;6117739;29;20891;-74
2021/10/21 05:21:36;;;;;;;8.60;7.00;;;;;;;6.22;87.47;96484.56;6101527;29;20200;-75
2021/10/21 05:24:38;;;;;;;8.30;6.83;;;;;;;6.16;87.45;96480.66;6138174;29;20273;-74
2021/10/21 05:27:40;;;;;;;6.77;5.97;;;;;;;6.17;87.21;96471.00;6138309;29;20356;-74
2021/10/21 05:30:42;;;;;;;9.93;7.73;;;;;;;6.18;87.16;96472.69;6120626;29;20198;-74
2021/10/21 05:33:44;;;;;;;8.63;7.57;;;;;;;6.15;86.97;96462.44;6137656;29;20244;-75
2021/10/21 05:36:46;;;;;;;9.50;8.20;;;;;;;6.11;87.09;96461.03;6108246;29;20307;-74
2021/10/21 05:39:48;;;;;;;10.73;9.23;;;;;;;6.06;86.63;96456.19;6109287;29;20200;-73
2021/10/21 05:42:50;;;;;;;11.03;8.83;;;;;;;6.05;86.65;96456.31;6120535;29;20195;-75
2021/10/21 05:45:52;;;;;;;13.33;10.20;;;;;;;6.03;86.76;96448.56;6137201;29;20191;-75
2021/10/21 05:48:54;;;;;;;12.97;10.17;;;;;;;5.96;86.38;96444.78;6137300;29;20377;-73
2021/10/21 05:51:57;;;;;;;13.43;10.13;;;;;;;5.93;86.96;96439.78;6097073;29;20210;-72
2021/10/21 05:54:58;;;;;;;13.93;10.50;;;;;;;5.96;86.59;96438.72;6073213;29;20212;-75
2021/10/21 05:58:01;;;;;;;12.43;10.33;;;;;;;5.94;86.93;96420.50;6127898;29;20198;-73
2021/10/21 06:01:03;;;;;;;13.43;10.50;;;;;;;5.97;86.57;96424.69;6119410;29;20578;-73
2021/10/21 06:04:05;;;;;;;15.47;11.17;;;;;;;5.97;86.47;96438.59;6134171;29;20547;-75
2021/10/21 06:07:07;;;;;;;10.23;8.90;;;;;;;6.02;86.79;96446.91;6135884;29;20222;-74
2021/10/21 06:10:09;;;;;;;14.00;9.63;;;;;;;6.07;86.71;96441.28;6118595;29;20231;-74
2021/10/21 06:13:11;;;;;;;10.17;8.10;;;;;;;6.10;86.82;96443.63;6135844;29;20846;-75
2021/10/21 06:16:12;;;;;;;11.00;9.87;;;;;;;6.15;86.66;96444.94;6116191;29;20195;-75
2021/10/21 06:19:16;;;;;;;13.97;11.23;;;;;;;6.16;86.56;96440.53;6110718;29;20748;-72
2021/10/21 06:22:18;;;;;;;18.47;12.57;;;;;;;6.13;86.14;96428.50;6132602;29;20291;-73
2021/10/21 06:25:20;;;;;;;17.10;13.80;;;;;;;6.11;86.22;96437.44;6136382;29;20678;-74
2021/10/21 06:28:22;;;;;;;17.73;13.00;;;;;;;6.11;86.69;96446.13;6118623;29;20212;-74
2021/10/21 06:31:24;;;;;;;18.03;13.43;;;;;;;6.12;86.73;96436.50;6118909;29;20204;-73
2021/10/21 06:34:27;;;;;;;15.47;13.00;;;;;;;6.16;85.99;96443.16;6135906;29;20282;-75
2021/10/21 06:37:30;;;;;;;17.80;13.87;;;;;;;6.21;86.68;96438.34;6122922;29;20511;-75
2021/10/21 06:40:32;;;;;;;15.70;13.00;;;;;;;6.28;86.34;96434.28;6091436;29;20235;-75
2021/10/21 06:43:34;;;;;;;18.03;13.73;;;;;;;6.34;86.79;96433.78;6135809;29;20488;-74
2021/10/21 06:46:36;;;;;;;17.40;13.43;;;;;;;6.40;86.60;96432.41;6117864;29;20211;-74
2021/10/21 06:49:38;;;;;;;14.10;11.10;;;;;;;6.45;86.35;96433.72;6135036;29;20219;-75
2021/10/21 06:52:44;;;;;;;15.63;13.10;;;;;;;6.53;86.30;96433.88;6135712;29;20277;-75
2021/10/21 06:55:46;;;;;;;14.77;12.10;;;;;;;6.57;86.05;96432.69;6135422;29;20699;-75
2021/10/21 06:58:48;;;;;;;16.00;13.13;;;;;;;6.61;86.14;96433.22;6135540;29;20627;-75
2021/10/21 07:01:50;;;;;;;17.17;14.20;;;;;;;6.66;85.91;96442.38;6135503;29;20680;-75
2021/10/21 07:04:53;;;;;;;16.60;13.83;;;;;;;6.68;85.78;96446.69;6118190;29;20663;-74
2021/10/21 07:08:02;;;;;;;16.40;13.57;;;;;;;6.70;86.13;96434.25;6117651;29;20234;-75
2021/10/21 07:11:08;;;;;;;23.60;16.87;;;;;;;6.76;85.94;96442.44;6081448;29;20467;-72
2021/10/21 07:14:10;;;;;;;20.40;17.07;;;;;;;6.84;85.84;96449.66;6115150;29;20195;-74
2021/10/21 07:17:12;;;;;;;20.03;15.57;;;;;;;6.93;85.80;96459.34;6133638;29;20545;-74
2021/10/21 07:20:14;;;;;;;22.43;17.77;;;;;;;7.02;86.20;96463.81;6117681;29;20199;-75
2021/10/21 07:23:17;;;;;;;20.63;16.47;;;;;;;7.15;86.03;96468.84;6122532;29;20199;-75
2021/10/21 07:26:19;;;;;;;23.60;18.17;;;;;;;7.27;85.96;96486.16;6116305;29;20201;-74
2021/10/21 07:29:21;;;;;;;25.87;18.57;;;;;;;7.37;86.04;96508.88;6116348;29;20741;-74
2021/10/21 07:32:23;;;;;;;23.70;16.90;;;;;;;7.46;86.21;96543.16;6139493;28;20192;-75
2021/10/21 07:35:27;;;;;;;20.17;16.83;;;;;;;7.60;87.30;96626.78;6109317;29;20208;-75
2021/10/21 07:38:29;;;;;;;27.53;21.10;;;;;;;7.82;87.79;96602.97;6095687;29;20195;-74
2021/10/21 07:41:31;;;;;;;27.07;20.83;;;;;;;8.20;87.35;96617.19;6136169;28;20238;-74
2021/10/21 07:44:33;;;;;;;28.30;20.40;;;;;;;8.52;87.30;96604.72;6143072;28;20227;-74
2021/10/21 07:47:37;;;;;;;28.47;23.00;;;;;;;8.91;87.37;96617.88;6125384;29;20232;-74
2021/10/21 07:50:39;;;;;;;30.33;23.07;;;;;;;9.20;86.76;96600.25;6142250;28;20209;-73
2021/10/21 07:53:41;;;;;;;27.20;21.93;;;;;;;9.54;85.44;96616.41;6142524;29;20375;-71
2021/10/21 07:56:43;;;;;;;27.03;21.27;;;;;;;9.83;84.46;96619.78;6142390;28;20390;-72
2021/10/21 07:59:45;;;;;;;24.00;21.17;;;;;;;10.07;83.08;96608.72;6142437;28;20419;-73
2021/10/21 08:02:47;;;;;;;23.87;20.07;;;;;;;10.31;81.65;96611.66;6142737;28;20258;-74
2021/10/21 08:05:49;;;;;;;22.90;20.33;;;;;;;10.60;81.11;96613.28;6124845;28;20308;-73
2021/10/21 08:08:51;;;;;;;21.17;17.83;;;;;;;10.90;80.21;96599.72;6124121;29;20750;-71
2021/10/21 08:11:53;;;;;;;23.33;16.80;;;;;;;11.17;79.28;96609.38;6124736;29;20209;-71
2021/10/21 08:14:55;;;;;;;18.10;15.57;;;;;;;11.36;78.12;96605.72;6142352;29;20246;-71
2021/10/21 08:17:57;;;;;;;18.87;15.97;;;;;;;11.52;77.22;96597.06;6142300;29;20245;-72
2021/10/21 08:21:02;;;;;;;16.43;14.53;;;;;;;11.67;75.84;96601.63;6108984;29;20201;-72
2021/10/21 08:24:07;;;;;;;15.40;12.83;;;;;;;11.90;75.52;96617.78;6142319;28;20198;-73
2021/10/21 08:27:09;;;;;;;15.23;11.73;;;;;;;12.13;74.02;96597.75;6142296;28;20381;-72
2021/10/21 08:30:13;;;;;;;10.97;9.77;;;;;;;12.49;73.03;96601.00;6125331;29;20588;-71
2021/10/21 08:33:15;;;;;;;9.83;8.27;;;;;;;12.83;70.35;96613.31;6124986;28;20204;-72
2021/10/21 08:36:19;;;;;;;9.17;8.03;;;;;;;13.11;70.10;96627.91;6133903;29;20676;-74
2021/10/21 08:39:21;;;;;;;11.37;8.53;;;;;;;13.24;68.51;96628.28;6102385;29;20746;-73
2021/10/21 08:42:23;;;;;;;9.23;8.23;;;;;;;13.47;68.17;96619.69;6083812;28;20213;-74
2021/10/21 08:45:27;;;;;;;8.00;5.90;;;;;;;13.73;67.05;96620.31;6120577;29;20582;-72
2021/10/21 08:48:30;;;;;;;8.23;5.73;;;;;;;14.07;64.84;96624.53;6138388;29;20729;-72
2021/10/21 08:51:33;;;;;;;5.80;4.70;;;;;;;14.35;65.57;96650.47;6121418;29;20572;-72
2021/10/21 08:54:35;;;;;;;5.30;4.37;;;;;;;14.65;65.36;96661.34;6136757;29;20243;-74
2021/10/21 08:57:38;;;;;;;5.50;4.90;;;;;;;14.88;63.09;96640.94;6138126;29;20191;-72
2021/10/21 09:00:40;;;;;;;4.80;4.30;;;;;;;15.36;62.44;96637.13;6120403;29;20236;-74
2021/10/21 09:04:16;;;;;;;4.80;4.03;;;;;;;15.79;61.14;96651.56;6120705;29;20207;-72
2021/10/21 09:10:47;;;;;;;5.57;4.23;;;;;;;16.43;59.88;96667.03;6091934;29;20201;-72
2021/10/21 09:14:07;;;;;;;4.93;4.37;;;;;;;16.28;59.97;96663.53;6118385;29;20210;-73
2021/10/21 09:17:11;;;;;;;5.30;4.73;;;;;;;16.01;58.99;96665.00;6120108;29;20293;-73
2021/10/21 09:20:40;;;;;;;6.60;4.53;;;;;;;15.98;60.74;96671.50;6133276;29;20733;-74
2021/10/21 09:23:42;;;;;;;6.07;4.00;;;;;;;16.07;61.78;96686.38;6120113;29;20206;-73
2021/10/21 09:27:10;;;;;;;4.57;4.17;;;;;;;16.66;60.07;96697.09;6137116;29;20302;-72
2021/10/21 09:30:14;;;;;;;4.97;3.33;;;;;;;17.31;58.40;96710.38;6120040;29;20213;-72
2021/10/21 09:33:16;;;;;;;4.97;3.37;;;;;;;17.75;57.16;96696.06;6120036;29;20293;-73
2021/10/21 09:36:24;;;;;;;4.43;3.33;;;;;;;18.06;55.26;96714.41;6114098;29;20214;-73
2021/10/21 09:39:27;;;;;;;4.27;3.37;;;;;;;18.34;53.12;96704.53;6128797;29;20485;-74
2021/10/21 09:42:35;;;;;;;4.67;3.17;;;;;;;18.64;53.72;96717.69;6104123;29;20618;-73
2021/10/21 09:45:43;;;;;;;3.10;2.80;;;;;;;18.89;54.01;96726.88;6133680;29;20234;-74
2021/10/21 09:48:45;;;;;;;3.63;3.10;;;;;;;19.08;52.35;96733.31;6136777;29;20206;-73
2021/10/21 09:51:50;;;;;;;3.40;3.10;;;;;;;19.39;51.22;96740.84;6137240;29;20341;-72
2021/10/21 09:54:53;;;;;;;5.33;3.17;;;;;;;19.51;50.07;96753.47;6118655;29;20290;-73
2021/10/21 09:58:03;;;;;;;3.00;2.80;;;;;;;19.51;51.48;96766.88;6136885;29;20199;-73
2021/10/21 10:01:13;;;;;;;3.13;2.80;;;;;;;19.62;50.89;96759.28;6119435;29;20222;-73
2021/10/21 10:04:16;;;;;;;2.87;2.47;;;;;;;19.56;51.10;96776.16;6119906;29;20297;-73
2021/10/21 10:07:22;;;;;;;2.53;2.20;;;;;;;19.37;49.73;96785.69;6119495;29;20214;-72
2021/10/21 10:10:24;;;;;;;2.97;2.00;;;;;;;19.54;48.48;96781.69;6113812;29;20741;-74
2021/10/21 10:13:27;;;;;;;3.47;1.87;;;;;;;19.09;50.95;96801.84;6131969;29;20199;-73
2021/10/21 10:16:33;;;;;;;3.07;2.17;;;;;;;18.98;50.19;96805.06;6119290;29;20195;-72
2021/10/21 10:19:35;;;;;;;2.00;1.33;;;;;;;18.89;49.79;96833.00;6125722;29;20223;-73
2021/10/21 10:22:40;;;;;;;2.00;1.80;;;;;;;18.57;50.01;96810.31;6124507;29;20221;-73
2021/10/21 10:25:47;;;;;;;2.13;1.43;;;;;;;18.25;50.28;96831.25;6136026;29;20686;-73
2021/10/21 10:28:53;;;;;;;3.70;1.60;;;;;;;18.12;50.97;96847.13;6136146;29;20206;-73
2021/10/21 10:31:56;;;;;;;2.87;1.57;;;;;;;18.04;51.59;96850.78;6135497;29;20218;-73
2021/10/21 10:35:01;;;;;;;1.63;1.40;;;;;;;17.70;50.90;96872.78;6118646;29;20670;-72
2021/10/21 10:38:05;;;;;;;2.20;1.33;;;;;;;17.60;51.43;96852.69;6114024;29;20640;-73
2021/10/21 10:41:07;;;;;;;1.53;1.23;;;;;;;17.72;51.74;96848.56;6099603;29;20210;-74
2021/10/21 10:44:11;;;;;;;1.63;1.47;;;;;;;17.70;51.71;96871.94;6127809;29;20197;-74
2021/10/21 10:47:13;;;;;;;1.50;1.40;;;;;;;17.58;50.38;96849.38;6135962;29;20191;-72
2021/10/21 10:50:21;;;;;;;1.27;1.10;;;;;;;17.49;51.38;96851.34;6135938;29;20280;-71
2021/10/21 10:53:47;;;;;;;2.00;1.40;;;;;;;17.07;49.51;96849.34;6135625;29;20567;-73
2021/10/21 10:56:49;;;;;;;2.93;1.20;;;;;;;16.94;49.20;96860.66;6118454;29;20206;-74
2021/10/21 11:00:32;;;;;;;1.67;1.00;;;;;;;16.86;49.82;96846.59;6135201;29;20628;-72
2021/10/21 11:03:46;;;;;;;3.90;1.30;;;;;;;16.85;49.49;96843.09;6135042;29;20206;-73
2021/10/21 11:07:05;;;;;;;1.60;1.20;;;;;;;16.89;49.81;96836.38;6134280;28;20203;-72
2021/10/21 11:13:39;;;;;;;5.33;1.70;;;;;;;17.00;50.70;96823.59;6117625;29;20213;-73
2021/10/21 11:16:53;;;;;;;3.93;1.40;;;;;;;17.02;51.16;96826.91;6134861;29;20187;-74
2021/10/21 11:19:56;;;;;;;2.17;1.47;;;;;;;16.99;51.03;96833.44;6100819;29;20193;-72
2021/10/21 11:22:59;;;;;;;1.67;1.57;;;;;;;17.10;51.91;96845.47;6117661;29;20205;-72
2021/10/21 11:26:02;;;;;;;3.73;1.93;;;;;;;17.26;51.32;96837.31;6117993;29;20821;-73
2021/10/21 11:29:05;;;;;;;1.70;1.60;;;;;;;17.46;51.28;96853.56;6135267;29;20514;-72
2021/10/21 11:32:09;;;;;;;2.03;1.40;;;;;;;17.50;51.41;96858.31;6134946;29;20194;-73
2021/10/21 11:35:23;;;;;;;1.50;1.30;;;;;;;17.37;50.44;96847.47;6118187;29;20191;-72
2021/10/21 11:38:25;;;;;;;1.80;1.33;;;;;;;17.53;51.69;96849.13;6110415;29;20279;-73
2021/10/21 11:41:28;;;;;;;2.97;1.47;;;;;;;17.73;49.97;96839.56;6113650;29;20206;-73
2021/10/21 11:44:30;;;;;;;1.10;1.00;;;;;;;18.00;50.16;96830.78;6134502;29;20201;-72
2021/10/21 11:47:34;;;;;;;1.50;1.30;;;;;;;18.26;50.09;96840.91;6134842;29;20326;-72
2021/10/21 11:50:41;;;;;;;2.90;1.30;;;;;;;18.19;50.07;96855.22;6117572;29;20212;-73
2021/10/21 11:53:48;;;;;;;3.17;1.30;;;;;;;18.27;49.60;96863.09;6116904;29;20637;-73
2021/10/21 11:56:54;;;;;;;2.50;1.23;;;;;;;17.93;49.64;96864.63;6133115;29;20206;-73
2021/10/21 11:59:56;;;;;;;1.90;1.10;;;;;;;17.86;50.12;96860.22;6134301;29;20305;-73
2021/10/21 12:03:00;;;;;;;4.83;1.57;;;;;;;17.82;50.55;96869.63;6134971;29;20199;-73
2021/10/21 12:06:04;;;;;;;1.57;1.20;;;;;;;17.54;49.18;96864.13;6117007;29;20730;-73
2021/10/21 12:09:07;;;;;;;4.30;1.10;;;;;;;17.49;48.55;96886.00;6133900;29;20429;-72
2021/10/21 12:12:17;;;;;;;2.20;1.00;;;;;;;17.47;47.49;96872.03;6098821;29;20195;-73
2021/10/21 12:15:19;;;;;;;1.53;0.87;;;;;;;17.60;47.48;96877.53;6134436;29;20195;-74
2021/10/21 12:18:25;;;;;;;4.47;1.30;;;;;;;17.64;45.31;96878.03;6119224;29;20278;-73
2021/10/21 12:21:36;;;;;;;3.97;1.00;;;;;;;17.99;46.11;96877.19;6121677;29;20441;-73
2021/10/21 12:24:42;;;;;;;1.73;1.00;;;;;;;18.32;46.41;96914.94;6139133;29;20294;-72
2021/10/21 12:27:44;;;;;;;1.63;1.00;;;;;;;18.60;42.41;96884.81;6121666;29;20198;-72
2021/10/21 12:30:48;;;;;;;4.37;1.10;;;;;;;18.40;40.93;96936.19;6138506;29;20210;-74
2021/10/21 12:34:01;;;;;;;7.70;1.10;;;;;;;18.18;41.01;96891.78;6138653;29;20836;-73
2021/10/21 12:37:07;;;;;;;1.67;0.90;;;;;;;18.20;41.85;96919.13;6119631;29;20206;-72
2021/10/21 12:40:21;;;;;;;1.33;0.70;;;;;;;18.27;42.74;96906.66;6122855;29;20188;-73
2021/10/21 12:43:25;;;;;;;1.27;0.77;;;;;;;18.22;41.39;96935.78;6106613;29;20729;-72
2021/10/21 12:46:29;;;;;;;4.43;1.10;;;;;;;17.84;41.62;96921.81;6138436;29;20195;-73
2021/10/21 12:49:31;;;;;;;2.40;0.80;;;;;;;17.65;41.79;96939.22;6138009;29;20334;-73
2021/10/21 12:52:38;;;;;;;2.63;0.77;;;;;;;18.29;40.96;96954.56;6138579;29;20239;-72
2021/10/21 12:55:40;;;;;;;3.57;0.80;;;;;;;18.19;41.71;96965.53;6121336;29;20194;-73
2021/10/21 12:58:42;;;;;;;2.60;0.80;;;;;;;17.75;41.06;96935.44;6120803;29;20187;-73
2021/10/21 13:02:02;;;;;;;2.70;0.87;;;;;;;17.63;43.46;96929.75;6120625;29;20221;-73
2021/10/21 13:05:05;;;;;;;3.60;0.70;;;;;;;17.45;43.05;96945.28;6120221;29;20199;-72
2021/10/21 13:08:08;;;;;;;2.40;0.67;;;;;;;17.44;43.10;96951.63;6137637;29;20632;-72
2021/10/21 13:11:11;;;;;;;2.53;0.80;;;;;;;17.38;43.06;96987.84;6126498;29;20742;-72
2021/10/21 13:14:13;;;;;;;2.00;0.90;;;;;;;17.30;43.58;96977.25;6137913;29;20194;-73
2021/10/21 13:17:16;;;;;;;3.30;0.67;;;;;;;17.29;43.90;96983.59;6137508;29;20694;-72
2021/10/21 13:20:21;;;;;;;1.67;0.60;;;;;;;17.27;44.45;96996.28;6123018;29;20199;-72
2021/10/21 13:23:23;;;;;;;1.20;0.70;;;;;;;17.11;42.75;96988.44;6098645;29;20192;-72
2021/10/21 13:26:25;;;;;;;1.50;0.47;;;;;;;17.07;43.79;97008.50;6133523;29;20711;-72
2021/10/21 13:29:27;;;;;;;2.77;0.70;;;;;;;16.83;43.44;97004.19;6136766;28;20558;-73
2021/10/21 13:32:29;;;;;;;2.37;0.60;;;;;;;16.78;44.01;97025.22;6120513;29;20198;-71
2021/10/21 13:35:32;;;;;;;3.23;0.83;;;;;;;16.63;43.96;97014.50;6117589;29;20421;-73
2021/10/21 13:38:34;;;;;;;0.80;0.60;;;;;;;16.63;44.12;97041.16;6099998;29;20246;-72
2021/10/21 13:41:37;;;;;;;3.33;0.60;;;;;;;16.67;44.46;97023.78;6100341;29;20421;-73
2021/10/21 13:44:40;;;;;;;2.13;0.70;;;;;;;16.64;44.49;97033.97;6120186;29;20207;-74
2021/10/21 13:47:42;;;;;;;2.57;0.90;;;;;;;16.51;45.83;97053.16;6137331;29;20190;-73
2021/10/21 13:50:48;;;;;;;3.23;0.80;;;;;;;16.37;44.51;97067.25;6119253;29;20234;-73
2021/10/21 13:53:50;;;;;;;3.83;0.50;;;;;;;16.34;44.25;97041.78;6137355;29;20596;-71
2021/10/21 13:56:53;;;;;;;0.97;0.80;;;;;;;16.33;44.54;97049.94;6137042;29;20698;-72
2021/10/21 13:59:55;;;;;;;1.33;0.70;;;;;;;16.19;44.89;97040.84;6115906;29;20721;-73
2021/10/21 14:02:57;;;;;;;2.53;0.70;;;;;;;16.09;45.26;97056.19;6119654;29;20442;-73
2021/10/21 14:06:00;;;;;;;2.53;1.03;;;;;;;15.92;44.96;97079.41;6135226;29;20204;-72
2021/10/21 14:09:03;;;;;;;2.97;0.93;;;;;;;15.79;44.82;97060.47;6110811;29;20223;-72
2021/10/21 14:12:06;;;;;;;2.33;0.87;;;;;;;15.69;46.19;97052.69;6136830;29;20394;-72
2021/10/21 14:15:08;;;;;;;1.43;0.90;;;;;;;15.57;46.86;97047.91;6119311;29;20213;-72
2021/10/21 14:18:10;;;;;;;1.63;0.60;;;;;;;15.52;46.39;97049.19;6118764;29;20233;-72
2021/10/21 14:21:12;;;;;;;3.50;1.00;;;;;;;15.49;46.15;97040.72;6132388;29;20409;-72
2021/10/21 14:24:14;;;;;;;2.10;0.70;;;;;;;15.52;45.67;97030.59;6135927;29;20290;-72
2021/10/21 14:27:18;;;;;;;3.73;1.00;;;;;;;15.46;46.35;97020.63;6135855;29;20191;-73
2021/10/21 14:30:21;;;;;;;3.53;0.83;;;;;;;15.46;45.30;97025.97;6118428;29;20377;-73
2021/10/21 14:33:23;;;;;;;3.57;0.80;;;;;;;15.54;44.80;97035.78;6136159;29;20191;-72